Aidamar — ICSJ — position and weather

sailwx.info

Track history (hours):
 
Tides and Currents Weather Stations Pressure Air Temp Water Temp Dewpoint Dewpoint Depression Visibility Wind Speed Wind Dir Waves Ship Positions

Aidamar

Last reported at 2014-Oct-21 04:33 UTC. Time now 2014-Oct-21 05:21 UTC.
Position N 38°12' E 013°24'.

Length 253 m; draft 7.3 m.

Type: Ship. MMSI: 247312900.

Date/timePositionNaut miles runAvg speedWind from/ knotsBaromVisibWave heightAir tempDewpointWater temp
2014-Oct-21 04:33N 38°12' E 013°24'1313.2
2014-Oct-21 03:33N 38°17' E 013°08'1616.3
2014-Oct-21 02:33N 38°16' E 012°47'161 8.0
2014-Oct-20 06:26N 35°59' E 014°32'1715.6
2014-Oct-20 05:19N 36°10' E 014°15'1415.5
2014-Oct-20 04:26N 36°16' E 013°60'17417.6
2014-Oct-19 18:32N 37°29' E 010°42'2420.2
2014-Oct-19 17:21N 37°33' E 010°12'2220.2
2014-Oct-19 16:16N 37°38' E 009°45'1419.6
2014-Oct-19 15:33N 37°42' E 009°28'2019.8
2014-Oct-19 14:33N 37°47' E 009°04'2019.8
2014-Oct-19 13:33N 37°52' E 008°40'2119.4
2014-Oct-19 12:28N 37°57' E 008°14'1718.9
2014-Oct-19 11:33N 38°02' E 007°53'2118.3
2014-Oct-19 10:24N 38°07' E 007°27'11119.1
2014-Oct-19 04:33N 38°36' E 005°10'6419.5
2014-Oct-19 01:16N 38°53' E 003°51'3319.6
2014-Oct-18 23:33N 39°02' E 003°09'2119.4
2014-Oct-18 22:28N 39°14' E 002°46'1617.6
2014-Oct-18 21:33N 39°29' E 002°39'4 0.8
2014-Oct-18 16:32N 39°33' E 002°38'0 0.0
2014-Oct-18 15:32N 39°33' E 002°38'0 0.0
2014-Oct-18 14:32N 39°33' E 002°38'0 0.0
2014-Oct-18 13:32N 39°33' E 002°38'0 0.0
2014-Oct-18 12:33N 39°33' E 002°38'0 0.0
2014-Oct-18 11:31N 39°33' E 002°38'0 0.0
2014-Oct-18 10:31N 39°33' E 002°38'0 0.0
2014-Oct-18 08:19N 39°33' E 002°38'0 0.0
2014-Oct-18 07:31N 39°33' E 002°38'0 0.0
2014-Oct-18 06:25N 39°33' E 002°38'0 0.0
2014-Oct-18 05:31N 39°33' E 002°38'0 0.0
2014-Oct-18 04:33N 39°33' E 002°38'0 0.0
2014-Oct-18 03:33N 39°33' E 002°38'3 2.9
2014-Oct-18 02:33N 39°30' E 002°37'8 7.8
2014-Oct-18 01:33N 39°26' E 002°28'8 7.9
2014-Oct-18 00:33N 39°29' E 002°20'8 7.7
2014-Oct-17 23:34N 39°34' E 002°11'1414.0
2014-Oct-17 22:33N 39°48' E 002°11'1615.7
2014-Oct-17 21:33N 40°04' E 002°11'1615.8
2014-Oct-17 20:33N 40°19' E 002°12'1615.6
2014-Oct-17 19:33N 40°35' E 002°12'1515.4
2014-Oct-17 18:33N 40°50' E 002°13'1616.1
2014-Oct-17 17:33N 41°07' E 002°13'1514.7
2014-Oct-17 16:33N 41°21' E 002°11'1 0.9
2014-Oct-17 15:18N 41°22' E 002°11'0 0.0
2014-Oct-17 14:27N 41°22' E 002°11'0 0.0
2014-Oct-17 13:33N 41°22' E 002°11'0 0.0
2014-Oct-17 12:21N 41°22' E 002°11'0 0.0
2014-Oct-17 11:33N 41°22' E 002°11'0 0.0
2014-Oct-17 10:33N 41°22' E 002°11'0 0.0
2014-Oct-17 09:21N 41°22' E 002°11'0 0.0
2014-Oct-17 08:33N 41°22' E 002°11'0 0.0
2014-Oct-17 07:33N 41°22' E 002°11'5 4.7
2014-Oct-17 06:33N 41°19' E 002°16'1312.7
2014-Oct-17 05:33N 41°20' E 002°33'1515.3
2014-Oct-17 04:33N 41°20' E 002°53'1515.1
2014-Oct-17 03:33N 41°19' E 003°13'3115.3
2014-Oct-17 01:32N 41°19' E 003°54'42814.8
2014-Oct-15 20:31N 40°42' E 013°19'1516.1
2014-Oct-15 19:34N 40°39' E 013°39'1615.7
2014-Oct-15 18:33N 40°39' E 013°60'1515.3
2014-Oct-15 17:33N 40°48' E 014°16'39 2.3
2014-Oct-15 00:34N 40°10' E 014°01'9 8.7
2014-Oct-14 23:34N 40°02' E 013°58'1514.8
2014-Oct-14 22:33N 39°47' E 013°55'1716.7
2014-Oct-14 21:33N 39°31' E 013°49'1716.8
2014-Oct-14 20:34N 39°15' E 013°45'1716.6
2014-Oct-14 19:33N 38°59' E 013°40'1716.8
2014-Oct-14 18:33N 38°42' E 013°35'1716.8
2014-Oct-14 17:33N 38°26' E 013°31'1616.2
2014-Oct-14 16:33N 38°10' E 013°27'5 4.3
2014-Oct-14 15:31N 38°08' E 013°22'0 0.0
2014-Oct-14 14:31N 38°08' E 013°22'0 0.0
2014-Oct-14 13:31N 38°08' E 013°22'0 0.0
2014-Oct-14 12:28N 38°08' E 013°22'0 0.0
2014-Oct-14 11:31N 38°08' E 013°22'0 0.0
2014-Oct-14 10:31N 38°08' E 013°22'0 0.0
2014-Oct-14 09:31N 38°08' E 013°22'0 0.0
2014-Oct-14 08:31N 38°08' E 013°22'136 5.2
2014-Oct-13 06:07N 36°01' E 014°26'915.2
2014-Oct-13 05:33N 36°07' E 014°18'1515.3
2014-Oct-13 04:34N 36°15' E 014°02'1515.4
2014-Oct-13 03:34N 36°22' E 013°45'1515.4
2014-Oct-13 02:34N 36°28' E 013°27'1515.4
2014-Oct-13 01:34N 36°35' E 013°10'1515.2
2014-Oct-13 00:34N 36°42' E 012°53'1818.1
2014-Oct-12 23:33N 36°50' E 012°33'1919.2
2014-Oct-12 22:34N 36°58' E 012°11'2319.6
2014-Oct-12 21:23N 37°08' E 011°45'1719.2
2014-Oct-12 20:31N 37°15' E 011°26'1819.1
2014-Oct-12 19:34N 37°23' E 011°06'1918.9
2014-Oct-12 18:33N 37°28' E 010°43'2019.3
2014-Oct-12 17:33N 37°33' E 010°19'1919.5
2014-Oct-12 16:33N 37°35' E 009°55'1919.4
2014-Oct-12 15:33N 37°41' E 009°31'2019.5
2014-Oct-12 14:33N 37°46' E 009°08'1919.2
2014-Oct-12 13:33N 37°51' E 008°44'1919.0
2014-Oct-12 12:32N 37°56' E 008°21'1919.4
2014-Oct-12 11:32N 38°01' E 007°57'2319.4
2014-Oct-12 10:21N 38°07' E 007°29'4218.8
2014-Oct-12 08:06N 38°18' E 006°37'3219.0
2014-Oct-12 06:25N 38°26' E 005°57'1818.7
2014-Oct-12 05:29N 38°31' E 005°36'2218.1
2014-Oct-12 04:15N 38°37' E 005°08'3819.0
2014-Oct-12 02:16N 38°46' E 004°22'1318.9
2014-Oct-12 01:33N 38°50' E 004°05'1818.4
2014-Oct-12 00:33N 38°55' E 003°42'1919.0
2014-Oct-11 23:33N 38°60' E 003°19'1918.9
2014-Oct-11 22:33N 39°05' E 002°55'1817.9
2014-Oct-11 21:33N 39°20' E 002°43'1312.6
2014-Oct-11 20:33N 39°32' E 002°39'1 1.1
2014-Oct-11 19:33N 39°33' E 002°38'0 0.0
2014-Oct-11 18:33N 39°33' E 002°38'0 0.0
2014-Oct-11 17:06N 39°33' E 002°38'0 0.0
2014-Oct-11 16:15N 39°33' E 002°38'0 0.0
2014-Oct-11 15:33N 39°33' E 002°38'0 0.0
2014-Oct-11 14:33N 39°33' E 002°38'0 0.0
2014-Oct-11 12:33N 39°33' E 002°38'0 0.0
2014-Oct-11 11:33N 39°33' E 002°38'0 0.0
2014-Oct-11 10:15N 39°33' E 002°38'0 0.0
2014-Oct-11 09:33N 39°33' E 002°38'0 0.0
2014-Oct-11 08:33N 39°33' E 002°38'0 0.0
2014-Oct-11 07:33N 39°33' E 002°38'0 0.0
2014-Oct-11 06:33N 39°33' E 002°38'0 0.0
2014-Oct-11 05:33N 39°33' E 002°38'  
Track history (hours):
 
Tides and Currents Weather Stations Pressure Air Temp Water Temp Dewpoint Dewpoint Depression Visibility Wind Speed Wind Dir Waves Ship Positions

Aidamar

Last reported at 2014-Oct-21 04:33 UTC. Time now 2014-Oct-21 05:21 UTC.
Position N 38°12' E 013°24'.

Length 253 m; draft 7.3 m.

Type: Ship. MMSI: 247312900.

Date/timePositionNaut miles runAvg speedWind from/ knotsBaromVisibWave heightAir tempDewpointWater temp
2014-Oct-21 04:33N 38°12' E 013°24'1313.2
2014-Oct-21 03:33N 38°17' E 013°08'1616.3
2014-Oct-21 02:33N 38°16' E 012°47'161 8.0
2014-Oct-20 06:26N 35°59' E 014°32'1715.6
2014-Oct-20 05:19N 36°10' E 014°15'1415.5
2014-Oct-20 04:26N 36°16' E 013°60'17417.6
2014-Oct-19 18:32N 37°29' E 010°42'2420.2
2014-Oct-19 17:21N 37°33' E 010°12'2220.2
2014-Oct-19 16:16N 37°38' E 009°45'1419.6
2014-Oct-19 15:33N 37°42' E 009°28'2019.8
2014-Oct-19 14:33N 37°47' E 009°04'2019.8
2014-Oct-19 13:33N 37°52' E 008°40'2119.4
2014-Oct-19 12:28N 37°57' E 008°14'1718.9
2014-Oct-19 11:33N 38°02' E 007°53'2118.3
2014-Oct-19 10:24N 38°07' E 007°27'11119.1
2014-Oct-19 04:33N 38°36' E 005°10'6419.5
2014-Oct-19 01:16N 38°53' E 003°51'3319.6
2014-Oct-18 23:33N 39°02' E 003°09'2119.4
2014-Oct-18 22:28N 39°14' E 002°46'1617.6
2014-Oct-18 21:33N 39°29' E 002°39'4 0.8
2014-Oct-18 16:32N 39°33' E 002°38'0 0.0
2014-Oct-18 15:32N 39°33' E 002°38'0 0.0
2014-Oct-18 14:32N 39°33' E 002°38'0 0.0
2014-Oct-18 13:32N 39°33' E 002°38'0 0.0
2014-Oct-18 12:33N 39°33' E 002°38'0 0.0
2014-Oct-18 11:31N 39°33' E 002°38'0 0.0
2014-Oct-18 10:31N 39°33' E 002°38'0 0.0
2014-Oct-18 08:19N 39°33' E 002°38'0 0.0
2014-Oct-18 07:31N 39°33' E 002°38'0 0.0
2014-Oct-18 06:25N 39°33' E 002°38'0 0.0
2014-Oct-18 05:31N 39°33' E 002°38'0 0.0
2014-Oct-18 04:33N 39°33' E 002°38'0 0.0
2014-Oct-18 03:33N 39°33' E 002°38'3 2.9
2014-Oct-18 02:33N 39°30' E 002°37'8 7.8
2014-Oct-18 01:33N 39°26' E 002°28'8 7.9
2014-Oct-18 00:33N 39°29' E 002°20'8 7.7
2014-Oct-17 23:34N 39°34' E 002°11'1414.0
2014-Oct-17 22:33N 39°48' E 002°11'1615.7
2014-Oct-17 21:33N 40°04' E 002°11'1615.8
2014-Oct-17 20:33N 40°19' E 002°12'1615.6
2014-Oct-17 19:33N 40°35' E 002°12'1515.4
2014-Oct-17 18:33N 40°50' E 002°13'1616.1
2014-Oct-17 17:33N 41°07' E 002°13'1514.7
2014-Oct-17 16:33N 41°21' E 002°11'1 0.9
2014-Oct-17 15:18N 41°22' E 002°11'0 0.0
2014-Oct-17 14:27N 41°22' E 002°11'0 0.0
2014-Oct-17 13:33N 41°22' E 002°11'0 0.0
2014-Oct-17 12:21N 41°22' E 002°11'0 0.0
2014-Oct-17 11:33N 41°22' E 002°11'0 0.0
2014-Oct-17 10:33N 41°22' E 002°11'0 0.0
2014-Oct-17 09:21N 41°22' E 002°11'0 0.0
2014-Oct-17 08:33N 41°22' E 002°11'0 0.0
2014-Oct-17 07:33N 41°22' E 002°11'5 4.7
2014-Oct-17 06:33N 41°19' E 002°16'1312.7
2014-Oct-17 05:33N 41°20' E 002°33'1515.3
2014-Oct-17 04:33N 41°20' E 002°53'1515.1
2014-Oct-17 03:33N 41°19' E 003°13'3115.3
2014-Oct-17 01:32N 41°19' E 003°54'42814.8
2014-Oct-15 20:31N 40°42' E 013°19'1516.1
2014-Oct-15 19:34N 40°39' E 013°39'1615.7
2014-Oct-15 18:33N 40°39' E 013°60'1515.3
2014-Oct-15 17:33N 40°48' E 014°16'39 2.3
2014-Oct-15 00:34N 40°10' E 014°01'9 8.7
2014-Oct-14 23:34N 40°02' E 013°58'1514.8
2014-Oct-14 22:33N 39°47' E 013°55'1716.7
2014-Oct-14 21:33N 39°31' E 013°49'1716.8
2014-Oct-14 20:34N 39°15' E 013°45'1716.6
2014-Oct-14 19:33N 38°59' E 013°40'1716.8
2014-Oct-14 18:33N 38°42' E 013°35'1716.8
2014-Oct-14 17:33N 38°26' E 013°31'1616.2
2014-Oct-14 16:33N 38°10' E 013°27'5 4.3
2014-Oct-14 15:31N 38°08' E 013°22'0 0.0
2014-Oct-14 14:31N 38°08' E 013°22'0 0.0
2014-Oct-14 13:31N 38°08' E 013°22'0 0.0
2014-Oct-14 12:28N 38°08' E 013°22'0 0.0
2014-Oct-14 11:31N 38°08' E 013°22'0 0.0
2014-Oct-14 10:31N 38°08' E 013°22'0 0.0
2014-Oct-14 09:31N 38°08' E 013°22'0 0.0
2014-Oct-14 08:31N 38°08' E 013°22'136 5.2
2014-Oct-13 06:07N 36°01' E 014°26'915.2
2014-Oct-13 05:33N 36°07' E 014°18'1515.3
2014-Oct-13 04:34N 36°15' E 014°02'1515.4
2014-Oct-13 03:34N 36°22' E 013°45'1515.4
2014-Oct-13 02:34N 36°28' E 013°27'1515.4
2014-Oct-13 01:34N 36°35' E 013°10'1515.2
2014-Oct-13 00:34N 36°42' E 012°53'1818.1
2014-Oct-12 23:33N 36°50' E 012°33'1919.2
2014-Oct-12 22:34N 36°58' E 012°11'2319.6
2014-Oct-12 21:23N 37°08' E 011°45'1719.2
2014-Oct-12 20:31N 37°15' E 011°26'1819.1
2014-Oct-12 19:34N 37°23' E 011°06'1918.9
2014-Oct-12 18:33N 37°28' E 010°43'2019.3
2014-Oct-12 17:33N 37°33' E 010°19'1919.5
2014-Oct-12 16:33N 37°35' E 009°55'1919.4
2014-Oct-12 15:33N 37°41' E 009°31'2019.5
2014-Oct-12 14:33N 37°46' E 009°08'1919.2
2014-Oct-12 13:33N 37°51' E 008°44'1919.0
2014-Oct-12 12:32N 37°56' E 008°21'1919.4
2014-Oct-12 11:32N 38°01' E 007°57'2319.4
2014-Oct-12 10:21N 38°07' E 007°29'4218.8
2014-Oct-12 08:06N 38°18' E 006°37'3219.0
2014-Oct-12 06:25N 38°26' E 005°57'1818.7
2014-Oct-12 05:29N 38°31' E 005°36'2218.1
2014-Oct-12 04:15N 38°37' E 005°08'3819.0
2014-Oct-12 02:16N 38°46' E 004°22'1318.9
2014-Oct-12 01:33N 38°50' E 004°05'1818.4
2014-Oct-12 00:33N 38°55' E 003°42'1919.0
2014-Oct-11 23:33N 38°60' E 003°19'1918.9
2014-Oct-11 22:33N 39°05' E 002°55'1817.9
2014-Oct-11 21:33N 39°20' E 002°43'1312.6
2014-Oct-11 20:33N 39°32' E 002°39'1 1.1
2014-Oct-11 19:33N 39°33' E 002°38'0 0.0
2014-Oct-11 18:33N 39°33' E 002°38'0 0.0
2014-Oct-11 17:06N 39°33' E 002°38'0 0.0
2014-Oct-11 16:15N 39°33' E 002°38'0 0.0
2014-Oct-11 15:33N 39°33' E 002°38'0 0.0
2014-Oct-11 14:33N 39°33' E 002°38'0 0.0
2014-Oct-11 12:33N 39°33' E 002°38'0 0.0
2014-Oct-11 11:33N 39°33' E 002°38'0 0.0
2014-Oct-11 10:15N 39°33' E 002°38'0 0.0
2014-Oct-11 09:33N 39°33' E 002°38'0 0.0
2014-Oct-11 08:33N 39°33' E 002°38'0 0.0
2014-Oct-11 07:33N 39°33' E 002°38'0 0.0
2014-Oct-11 06:33N 39°33' E 002°38'0 0.0
2014-Oct-11 05:33N 39°33' E 002°38'  

Dump ship's entire track history